Time;durP1;ratioP1;P1;durP2;ratioP2;P2;SDS_P1;SDS_P2;PMS_P1;PMS_P2;Temp;Humidity;BMP_temperature;BMP_pressure;BME280_temperature;BME280_humidity;BME280_pressure;Samples;Min_cycle;Max_cycle;Signal;HPM_P1;HPM_P2
2021/11/05 00:00:21;;;;;;;7.13;5.57;;;23.80;44.10;;;;;;5030672;28;20278;-57
2021/11/05 00:02:50;;;;;;;8.13;5.25;;;23.80;44.10;;;;;;5024947;28;20057;-57
2021/11/05 00:05:17;;;;;;;7.50;5.47;;;23.80;44.10;;;;;;5029215;28;20099;-57
2021/11/05 00:07:44;;;;;;;7.57;5.20;;;23.80;44.10;;;;;;5028262;28;20092;-60
2021/11/05 00:10:12;;;;;;;7.68;5.50;;;23.80;44.10;;;;;;5033807;28;20068;-57
2021/11/05 00:12:39;;;;;;;8.80;6.32;;;23.80;44.10;;;;;;5028593;28;20132;-59
2021/11/05 00:15:07;;;;;;;7.18;5.05;;;23.80;44.00;;;;;;5027191;28;20057;-59
2021/11/05 00:17:34;;;;;;;7.43;5.22;;;23.80;44.00;;;;;;5029243;28;20049;-59
2021/11/05 00:20:02;;;;;;;6.90;5.47;;;23.80;44.00;;;;;;5026778;28;20048;-59
2021/11/05 00:22:29;;;;;;;8.23;6.15;;;23.80;43.90;;;;;;5029174;28;20473;-59
2021/11/05 00:24:56;;;;;;;8.00;5.57;;;23.90;43.90;;;;;;5028234;28;20571;-59
2021/11/05 00:27:24;;;;;;;7.75;5.57;;;23.80;43.90;;;;;;5029100;28;20052;-59
2021/11/05 00:29:51;;;;;;;7.57;5.00;;;23.80;43.90;;;;;;5025217;28;20040;-60
2021/11/05 00:32:18;;;;;;;6.03;5.07;;;23.80;43.90;;;;;;5029191;28;20084;-59
2021/11/05 00:34:45;;;;;;;6.43;4.93;;;23.80;43.90;;;;;;5028839;28;20049;-59
2021/11/05 00:37:12;;;;;;;6.43;4.88;;;23.80;43.90;;;;;;5029292;28;20290;-59
2021/11/05 00:39:39;;;;;;;6.70;4.65;;;23.80;43.90;;;;;;5026998;28;20084;-59
2021/11/05 00:42:06;;;;;;;7.53;5.55;;;23.80;43.90;;;;;;5028684;28;20118;-59
2021/11/05 00:44:34;;;;;;;7.10;5.22;;;23.80;43.90;;;;;;5026781;28;20045;-59
2021/11/05 00:47:01;;;;;;;7.07;5.15;;;23.80;43.90;;;;;;5028612;28;20542;-59
2021/11/05 00:49:28;;;;;;;6.65;5.03;;;23.80;43.90;;;;;;5033326;28;20079;-59
2021/11/05 00:51:55;;;;;;;7.88;5.22;;;23.80;43.90;;;;;;5047831;28;20093;-59
2021/11/05 00:54:22;;;;;;;7.53;5.25;;;23.80;43.90;;;;;;5048214;28;20052;-59
2021/11/05 00:56:49;;;;;;;6.82;5.10;;;23.80;43.90;;;;;;5047194;28;20106;-59
2021/11/05 00:59:17;;;;;;;5.63;4.53;;;23.80;43.90;;;;;;5021195;28;20443;-59
2021/11/05 01:01:44;;;;;;;7.03;4.82;;;23.80;43.90;;;;;;5023754;28;20163;-56
2021/11/05 01:04:11;;;;;;;8.18;5.47;;;23.80;43.80;;;;;;5022504;28;20128;-59
2021/11/05 01:06:38;;;;;;;6.25;4.93;;;23.80;43.90;;;;;;5023783;28;20135;-59
2021/11/05 01:09:05;;;;;;;6.18;4.60;;;23.80;43.90;;;;;;5023856;28;20102;-59
2021/11/05 01:11:32;;;;;;;5.47;4.57;;;23.80;43.90;;;;;;5023102;28;20487;-59
2021/11/05 01:14:00;;;;;;;5.65;4.50;;;23.80;43.80;;;;;;5023196;28;20132;-59
2021/11/05 01:16:27;;;;;;;6.35;4.57;;;23.80;43.80;;;;;;5022704;28;20844;-61
2021/11/05 01:18:54;;;;;;;6.18;4.90;;;23.80;43.80;;;;;;5028070;28;20103;-59
2021/11/05 01:21:22;;;;;;;5.95;4.57;;;23.80;43.80;;;;;;5025588;28;20088;-59
2021/11/05 01:23:49;;;;;;;6.35;4.63;;;23.80;43.90;;;;;;5026705;28;20045;-59
2021/11/05 01:26:16;;;;;;;7.75;5.07;;;23.80;43.90;;;;;;5027513;28;20059;-59
2021/11/05 01:28:44;;;;;;;6.55;4.50;;;23.70;43.90;;;;;;5027298;28;20075;-59
2021/11/05 01:31:11;;;;;;;6.38;4.40;;;23.70;43.90;;;;;;5024270;28;20111;-59
2021/11/05 01:33:39;;;;;;;7.13;4.82;;;23.70;43.90;;;;;;5027931;28;20072;-59
2021/11/05 01:36:06;;;;;;;6.82;4.63;;;23.70;43.90;;;;;;5027458;28;20056;-59
2021/11/05 01:38:34;;;;;;;6.60;4.40;;;23.70;44.00;;;;;;5028922;28;20052;-59
2021/11/05 01:41:01;;;;;;;5.53;4.18;;;23.70;43.90;;;;;;5028697;28;20144;-59
2021/11/05 01:43:28;;;;;;;7.35;4.32;;;23.70;43.90;;;;;;5028051;28;20075;-59
2021/11/05 01:45:56;;;;;;;4.60;3.78;;;23.70;44.00;;;;;;5026113;28;20088;-59
2021/11/05 01:48:23;;;;;;;7.05;5.00;;;23.70;43.90;;;;;;5022899;28;20048;-59
2021/11/05 01:50:51;;;;;;;6.53;4.80;;;23.60;43.90;;;;;;5023536;28;20053;-59
2021/11/05 01:53:18;;;;;;;6.50;4.40;;;23.70;43.90;;;;;;5027618;28;20476;-59
2021/11/05 01:55:45;;;;;;;5.85;4.85;;;23.70;43.90;;;;;;5026964;28;20492;-59
2021/11/05 01:58:13;;;;;;;7.15;4.90;;;23.70;43.90;;;;;;5027753;28;20052;-59
2021/11/05 02:00:40;;;;;;;4.47;3.75;;;23.70;43.80;;;;;;5027829;28;20135;-59
2021/11/05 02:03:08;;;;;;;5.80;3.92;;;23.70;43.80;;;;;;5009565;28;20056;-57
2021/11/05 02:05:36;;;;;;;6.00;4.10;;;23.70;43.80;;;;;;5027003;28;20130;-57
2021/11/05 02:08:03;;;;;;;5.00;4.20;;;23.70;43.80;;;;;;5024548;28;20602;-56
2021/11/05 02:10:30;;;;;;;5.05;3.70;;;23.70;43.70;;;;;;5033271;28;20488;-59
2021/11/05 02:12:58;;;;;;;4.80;3.72;;;23.70;43.70;;;;;;5047423;28;20099;-59
2021/11/05 02:15:25;;;;;;;5.78;3.55;;;23.70;43.70;;;;;;5046560;28;20094;-59
2021/11/05 02:17:53;;;;;;;6.35;4.63;;;23.70;43.70;;;;;;5043184;28;20103;-59
2021/11/05 02:20:24;;;;;;;5.05;3.75;;;23.70;43.80;;;;;;5024846;28;20082;-59
2021/11/05 02:22:53;;;;;;;5.50;3.75;;;23.70;43.70;;;;;;5023345;28;20175;-59
2021/11/05 02:25:21;;;;;;;6.05;4.13;;;23.70;43.70;;;;;;5021853;28;20453;-59
2021/11/05 02:27:49;;;;;;;5.57;4.13;;;23.60;43.70;;;;;;5018738;28;20148;-59
2021/11/05 02:30:17;;;;;;;5.10;3.90;;;23.70;44.30;;;;;;5026350;28;20052;-59
2021/11/05 02:32:44;;;;;;;4.57;3.85;;;23.60;43.70;;;;;;5021855;28;20510;-59
2021/11/05 02:35:15;;;;;;;5.07;4.13;;;23.70;43.70;;;;;;5021166;28;20059;-59
2021/11/05 02:37:43;;;;;;;4.40;3.40;;;23.70;43.70;;;;;;5020602;28;20500;-59
2021/11/05 02:40:11;;;;;;;3.65;3.15;;;23.70;43.70;;;;;;5026111;28;20153;-56
2021/11/05 02:42:39;;;;;;;4.35;3.70;;;23.70;43.70;;;;;;5021629;28;20490;-57
2021/11/05 02:45:07;;;;;;;6.88;3.58;;;23.70;43.70;;;;;;5021170;28;20136;-59
2021/11/05 02:47:35;;;;;;;4.15;3.42;;;23.70;43.70;;;;;;5020520;28;20156;-57
2021/11/05 02:50:12;;;;;;;4.60;3.13;;;23.60;43.70;;;;;;5017260;28;20322;-57
2021/11/05 02:52:40;;;;;;;4.57;3.58;;;23.60;43.70;;;;;;5019919;28;20053;-57
2021/11/05 02:55:10;;;;;;;4.97;3.83;;;23.70;43.70;;;;;;5024050;28;20041;-57
2021/11/05 02:57:38;;;;;;;4.78;3.60;;;23.70;43.70;;;;;;5025061;28;20056;-57
2021/11/05 03:00:08;;;;;;;4.18;3.20;;;23.70;43.70;;;;;;5034388;28;20080;-57
2021/11/05 03:02:35;;;;;;;3.90;3.17;;;23.70;43.70;;;;;;5045924;28;20060;-58
2021/11/05 03:05:02;;;;;;;4.78;3.70;;;23.60;43.60;;;;;;5046078;28;20083;-57
2021/11/05 03:07:30;;;;;;;3.92;3.40;;;23.60;43.60;;;;;;5045753;28;20131;-58
2021/11/05 03:09:57;;;;;;;5.22;3.53;;;23.60;43.60;;;;;;5033865;28;20135;-57
2021/11/05 03:12:24;;;;;;;3.80;3.00;;;23.60;43.70;;;;;;5044659;28;20110;-57
2021/11/05 03:14:51;;;;;;;4.47;3.53;;;23.60;43.70;;;;;;5045008;28;20846;-57
2021/11/05 03:17:18;;;;;;;2.97;2.67;;;23.60;43.70;;;;;;5045820;28;20080;-57
2021/11/05 03:19:46;;;;;;;4.50;3.45;;;23.60;43.70;;;;;;5033353;28;20048;-57
2021/11/05 03:22:13;;;;;;;4.30;2.92;;;23.60;43.70;;;;;;5039948;28;20423;-58
2021/11/05 03:24:40;;;;;;;4.13;3.55;;;23.60;43.70;;;;;;5024255;28;20049;-58
2021/11/05 03:27:07;;;;;;;5.25;3.53;;;23.60;43.70;;;;;;5019034;28;20387;-58
2021/11/05 03:29:35;;;;;;;4.30;3.08;;;23.60;43.80;;;;;;5018337;28;20156;-57
2021/11/05 03:32:02;;;;;;;5.22;3.13;;;23.60;43.80;;;;;;5019097;28;20359;-57
2021/11/05 03:34:29;;;;;;;4.40;3.33;;;23.60;43.70;;;;;;5021689;28;20520;-57
2021/11/05 03:36:57;;;;;;;3.42;2.70;;;23.50;43.70;;;;;;5021079;28;20057;-57
2021/11/05 03:39:24;;;;;;;4.10;3.38;;;23.50;43.70;;;;;;5016922;28;20136;-57
2021/11/05 03:41:51;;;;;;;2.78;2.50;;;23.50;43.60;;;;;;5019471;28;20049;-58
2021/11/05 03:44:19;;;;;;;3.67;2.60;;;23.60;43.70;;;;;;5019624;28;20421;-58
2021/11/05 03:46:46;;;;;;;4.10;3.28;;;23.60;43.60;;;;;;5018207;28;20114;-57
2021/11/05 03:49:13;;;;;;;3.13;2.83;;;23.60;43.60;;;;;;5018982;28;20052;-57
2021/11/05 03:51:40;;;;;;;3.03;2.58;;;23.60;43.60;;;;;;5020827;28;20067;-57
2021/11/05 03:54:08;;;;;;;4.63;3.15;;;23.60;43.50;;;;;;5021130;28;20060;-57
2021/11/05 03:56:35;;;;;;;3.10;2.60;;;23.60;43.50;;;;;;5021192;28;20663;-58
2021/11/05 03:59:03;;;;;;;4.07;3.08;;;23.60;43.60;;;;;;5016097;28;20107;-57
2021/11/05 04:01:31;;;;;;;3.58;2.70;;;23.60;43.60;;;;;;5019652;28;20305;-57
2021/11/05 04:03:58;;;;;;;3.97;3.13;;;23.60;43.60;;;;;;5020295;28;20329;-57
2021/11/05 04:06:25;;;;;;;4.72;3.00;;;23.60;43.60;;;;;;5021265;28;20053;-57
2021/11/05 04:08:53;;;;;;;3.42;2.50;;;23.60;43.60;;;;;;5015436;28;20144;-57
2021/11/05 04:11:21;;;;;;;3.10;2.63;;;23.60;43.60;;;;;;5019166;28;20557;-58
2021/11/05 04:13:48;;;;;;;3.55;2.78;;;23.60;43.70;;;;;;5023287;28;20487;-57
2021/11/05 04:16:15;;;;;;;3.35;2.67;;;23.60;43.70;;;;;;5024252;28;20061;-57
2021/11/05 04:18:42;;;;;;;4.55;3.00;;;23.60;43.70;;;;;;5018369;28;20811;-57
2021/11/05 04:21:10;;;;;;;3.55;2.75;;;23.60;43.70;;;;;;5041430;28;20078;-57
2021/11/05 04:23:37;;;;;;;2.92;2.45;;;23.60;43.70;;;;;;5039463;28;20053;-57
2021/11/05 04:26:05;;;;;;;2.65;2.13;;;23.60;43.70;;;;;;5021516;28;20045;-57
2021/11/05 04:28:33;;;;;;;4.10;3.17;;;23.60;43.80;;;;;;5011389;28;20045;-57
2021/11/05 04:31:01;;;;;;;2.65;2.42;;;23.60;43.80;;;;;;5011464;28;20196;-57
2021/11/05 04:33:31;;;;;;;2.42;2.20;;;23.50;43.80;;;;;;5014025;28;20049;-58
2021/11/05 04:36:00;;;;;;;3.58;2.35;;;23.60;43.90;;;;;;5010673;28;20045;-57
2021/11/05 04:38:28;;;;;;;2.78;2.35;;;23.60;43.90;;;;;;5014381;28;20536;-58
2021/11/05 04:40:56;;;;;;;3.22;2.67;;;23.50;43.80;;;;;;5020869;28;20063;-57
2021/11/05 04:43:24;;;;;;;2.88;2.58;;;23.60;43.90;;;;;;5014299;28;20334;-57
2021/11/05 04:45:52;;;;;;;3.10;2.40;;;23.60;43.90;;;;;;5007025;28;20207;-58
2021/11/05 04:48:19;;;;;;;3.25;2.63;;;23.50;43.80;;;;;;5002798;28;20162;-58
2021/11/05 04:50:47;;;;;;;2.88;2.47;;;23.60;43.90;;;;;;5009566;28;20056;-57
2021/11/05 04:53:14;;;;;;;2.97;2.15;;;23.60;43.90;;;;;;5023947;28;20064;-59
2021/11/05 04:55:41;;;;;;;2.75;2.50;;;23.50;44.50;;;;;;5024797;28;20080;-58
2021/11/05 04:58:09;;;;;;;2.20;2.00;;;23.50;44.00;;;;;;5022583;28;20083;-57
2021/11/05 05:00:37;;;;;;;2.75;1.95;;;23.50;43.90;;;;;;5026355;28;20080;-57
2021/11/05 05:03:04;;;;;;;5.13;2.53;;;23.50;43.90;;;;;;5028100;28;20146;-57
2021/11/05 05:05:32;;;;;;;4.35;2.35;;;23.50;43.90;;;;;;5028192;28;20749;-57
2021/11/05 05:07:59;;;;;;;4.63;2.45;;;23.50;43.90;;;;;;5025542;28;20118;-57
2021/11/05 05:10:27;;;;;;;2.33;1.95;;;23.50;43.90;;;;;;5023978;28;20456;-57
2021/11/05 05:12:54;;;;;;;2.45;2.25;;;23.50;43.90;;;;;;5028338;28;20056;-57
2021/11/05 05:15:22;;;;;;;2.42;2.20;;;23.50;43.90;;;;;;5027656;28;20049;-57
2021/11/05 05:17:50;;;;;;;5.43;2.42;;;23.50;43.80;;;;;;5024604;28;20057;-58
2021/11/05 05:20:19;;;;;;;5.20;2.40;;;23.50;43.80;;;;;;5028426;28;20049;-58
2021/11/05 05:22:47;;;;;;;3.35;2.20;;;23.50;43.80;;;;;;5025091;28;20053;-57
2021/11/05 05:25:17;;;;;;;3.38;2.35;;;23.50;43.80;;;;;;5007835;28;20053;-58
2021/11/05 05:27:46;;;;;;;4.15;2.17;;;23.50;43.70;;;;;;5007699;28;20056;-58
2021/11/05 05:30:15;;;;;;;2.85;2.00;;;23.50;43.70;;;;;;5021907;28;20144;-58
2021/11/05 05:32:45;;;;;;;5.93;2.67;;;23.50;43.70;;;;;;5021089;28;20514;-57
2021/11/05 05:35:14;;;;;;;5.28;2.55;;;23.50;43.60;;;;;;5012170;28;20050;-58
2021/11/05 05:37:41;;;;;;;3.28;1.92;;;23.50;43.60;;;;;;5005831;28;20057;-58
2021/11/05 05:40:09;;;;;;;3.55;1.90;;;23.50;43.60;;;;;;5027069;28;20704;-57
2021/11/05 05:42:36;;;;;;;2.65;1.90;;;23.50;43.50;;;;;;5034933;28;20158;-58
2021/11/05 05:45:05;;;;;;;3.90;2.20;;;23.50;43.50;;;;;;5027045;28;20049;-58
2021/11/05 05:47:32;;;;;;;3.72;1.90;;;23.50;43.50;;;;;;5019986;28;20611;-58
2021/11/05 05:50:00;;;;;;;3.53;1.98;;;23.50;43.50;;;;;;5014764;28;20107;-57
2021/11/05 05:52:27;;;;;;;2.45;2.08;;;23.50;43.50;;;;;;5020719;28;20458;-57
2021/11/05 05:54:54;;;;;;;3.67;2.20;;;23.50;43.40;;;;;;5020636;28;20059;-57
2021/11/05 05:57:21;;;;;;;3.38;1.85;;;23.50;43.40;;;;;;5026545;28;20816;-57
2021/11/05 05:59:48;;;;;;;2.35;2.10;;;23.50;43.40;;;;;;5022753;28;20127;-57
2021/11/05 06:02:15;;;;;;;3.60;2.00;;;23.60;43.40;;;;;;5027749;28;20103;-57
2021/11/05 06:04:42;;;;;;;4.13;1.83;;;23.60;43.40;;;;;;5025487;28;20736;-57
2021/11/05 06:07:10;;;;;;;5.20;2.10;;;23.50;43.20;;;;;;5025618;28;20123;-56
2021/11/05 06:09:37;;;;;;;2.25;1.92;;;23.60;42.80;;;;;;5017863;28;20498;-57
2021/11/05 06:12:04;;;;;;;2.22;1.80;;;23.60;42.50;;;;;;5016381;28;20045;-56
2021/11/05 06:14:32;;;;;;;3.00;2.13;;;23.60;42.20;;;;;;5016851;28;20055;-57
2021/11/05 06:16:59;;;;;;;2.35;2.15;;;23.60;42.20;;;;;;5012141;28;20063;-57
2021/11/05 06:19:26;;;;;;;1.83;1.60;;;23.60;42.60;;;;;;5013890;28;20506;-57
2021/11/05 06:21:54;;;;;;;1.77;1.67;;;23.60;41.80;;;;;;5017610;28;20140;-59
2021/11/05 06:24:22;;;;;;;2.13;1.83;;;23.60;41.70;;;;;;5012679;28;20080;-57
2021/11/05 06:26:50;;;;;;;2.70;1.67;;;23.60;42.00;;;;;;5018114;28;20095;-57
2021/11/05 06:29:17;;;;;;;4.78;2.05;;;23.70;42.20;;;;;;5005922;28;20061;-58
2021/11/05 06:31:45;;;;;;;1.88;1.60;;;23.70;42.30;;;;;;5012096;28;20106;-57
2021/11/05 06:34:12;;;;;;;2.65;1.80;;;23.70;42.40;;;;;;5014269;28;20068;-58
2021/11/05 06:36:39;;;;;;;3.28;1.75;;;23.70;42.20;;;;;;5013568;28;20049;-58
2021/11/05 06:39:10;;;;;;;2.13;1.60;;;23.60;42.20;;;;;;5009177;28;20052;-58
2021/11/05 06:41:37;;;;;;;2.88;2.00;;;23.70;42.20;;;;;;5010906;28;20102;-58
2021/11/05 06:44:04;;;;;;;3.17;1.65;;;23.70;42.00;;;;;;5010909;28;20045;-57
2021/11/05 06:46:32;;;;;;;3.95;1.67;;;23.80;42.20;;;;;;5015448;28;20045;-58
2021/11/05 06:48:59;;;;;;;4.65;1.75;;;23.80;42.20;;;;;;5003773;28;20051;-55
2021/11/05 06:51:26;;;;;;;2.63;1.80;;;23.80;42.30;;;;;;5003185;28;20046;-54
2021/11/05 06:53:53;;;;;;;2.80;1.67;;;23.80;42.30;;;;;;5014714;28;20139;-57
2021/11/05 06:56:20;;;;;;;2.92;1.80;;;23.80;42.30;;;;;;5014335;28;20107;-57
2021/11/05 06:58:49;;;;;;;2.05;1.75;;;23.90;42.40;;;;;;5008276;28;20783;-58
2021/11/05 07:01:17;;;;;;;3.67;1.73;;;23.90;42.50;;;;;;5005369;28;20049;-56
2021/11/05 07:03:44;;;;;;;3.92;1.63;;;24.00;42.50;;;;;;5014759;28;20055;-57
2021/11/05 07:06:11;;;;;;;2.20;1.60;;;24.10;42.40;;;;;;5016741;28;20139;-58
2021/11/05 07:08:40;;;;;;;1.83;1.53;;;24.10;42.40;;;;;;5007546;28;20123;-58
2021/11/05 07:11:08;;;;;;;3.15;1.45;;;24.10;42.40;;;;;;5001624;28;20045;-58
2021/11/05 07:13:35;;;;;;;2.08;1.77;;;24.20;42.20;;;;;;5016942;28;20049;-58
2021/11/05 07:16:03;;;;;;;2.70;1.77;;;24.20;42.30;;;;;;5013327;28;20056;-57
2021/11/05 07:18:32;;;;;;;5.07;1.85;;;24.30;42.30;;;;;;5005540;28;20571;-59
2021/11/05 07:21:03;;;;;;;2.30;2.00;;;24.30;42.20;;;;;;5010598;28;20122;-58
2021/11/05 07:23:32;;;;;;;1.70;1.60;;;24.30;42.10;;;;;;5014842;28;20053;-58
2021/11/05 07:26:02;;;;;;;3.95;1.67;;;24.30;41.80;;;;;;5011351;28;20489;-58
2021/11/05 07:28:30;;;;;;;2.25;1.88;;;24.30;41.60;;;;;;5009191;28;20384;-58
2021/11/05 07:30:57;;;;;;;2.65;2.00;;;24.30;41.30;;;;;;5009525;28;20848;-58
2021/11/05 07:33:24;;;;;;;4.57;1.77;;;24.30;41.10;;;;;;5006184;28;20049;-57
2021/11/05 07:35:51;;;;;;;2.35;1.65;;;24.40;41.00;;;;;;5012190;28;20064;-57
2021/11/05 07:38:19;;;;;;;3.75;1.90;;;24.40;40.70;;;;;;5008782;28;20057;-57
2021/11/05 07:40:47;;;;;;;2.65;2.30;;;24.40;40.50;;;;;;5003505;28;20984;-57
2021/11/05 07:43:14;;;;;;;3.42;2.08;;;24.40;40.40;;;;;;5012065;28;20049;-57
2021/11/05 07:45:41;;;;;;;2.20;1.90;;;24.40;40.30;;;;;;5014075;28;20490;-57
2021/11/05 07:48:08;;;;;;;2.47;1.60;;;24.50;40.40;;;;;;5011707;28;20049;-57
2021/11/05 07:50:36;;;;;;;1.92;1.50;;;24.50;40.40;;;;;;5009510;28;20049;-57
2021/11/05 07:53:05;;;;;;;3.72;1.70;;;24.50;40.40;;;;;;5015741;28;20174;-57
2021/11/05 07:55:33;;;;;;;6.88;1.98;;;24.50;40.30;;;;;;5017008;28;20052;-57
2021/11/05 07:58:00;;;;;;;3.38;2.03;;;24.60;40.20;;;;;;5010469;28;20134;-56
2021/11/05 08:00:28;;;;;;;2.83;1.65;;;24.60;40.00;;;;;;5007129;28;20190;-57
2021/11/05 08:02:56;;;;;;;2.40;1.70;;;24.60;39.90;;;;;;5018900;28;20135;-57
2021/11/05 08:05:23;;;;;;;2.25;1.65;;;24.60;39.80;;;;;;5015865;28;20069;-60
2021/11/05 08:07:51;;;;;;;4.72;1.90;;;24.70;39.70;;;;;;5018599;28;20546;-60
2021/11/05 08:10:20;;;;;;;1.35;1.25;;;24.70;39.50;;;;;;5003745;28;20084;-59
2021/11/05 08:12:51;;;;;;;4.93;1.63;;;24.70;39.30;;;;;;5007823;28;20061;-57
2021/11/05 08:15:20;;;;;;;1.73;1.60;;;24.70;39.20;;;;;;5015938;28;20053;-57
2021/11/05 08:17:49;;;;;;;3.97;1.40;;;24.80;39.20;;;;;;5012605;28;20067;-57
2021/11/05 08:20:16;;;;;;;1.65;1.40;;;24.80;39.20;;;;;;5004287;28;20381;-57
2021/11/05 08:22:45;;;;;;;2.97;1.52;;;24.80;39.10;;;;;;5012326;28;20716;-57
2021/11/05 08:25:14;;;;;;;4.78;1.88;;;24.80;39.10;;;;;;5009638;28;20041;-57
2021/11/05 08:27:41;;;;;;;1.58;1.23;;;24.80;39.20;;;;;;5016988;28;20439;-59
2021/11/05 08:30:17;;;;;;;3.88;1.00;;;24.90;39.10;;;;;;4999524;28;20141;-57
2021/11/05 08:32:45;;;;;;;0.80;0.80;;;24.90;39.60;;;;;;5017751;28;20115;-57
2021/11/05 08:35:13;;;;;;;1.40;1.30;;;24.90;39.00;;;;;;5019775;28;20095;-57
2021/11/05 08:37:40;;;;;;;2.50;1.55;;;25.00;39.00;;;;;;5018800;28;20061;-58
2021/11/05 08:40:09;;;;;;;1.73;1.20;;;25.00;38.90;;;;;;5007838;28;20053;-57
2021/11/05 08:42:38;;;;;;;1.95;1.20;;;25.00;38.90;;;;;;5018752;28;20125;-58
2021/11/05 08:45:07;;;;;;;3.78;1.10;;;25.00;38.90;;;;;;5016618;28;20088;-57
2021/11/05 08:47:36;;;;;;;1.13;0.82;;;25.00;38.70;;;;;;5014889;28;20110;-57
2021/11/05 08:50:07;;;;;;;1.33;1.23;;;25.10;38.70;;;;;;5007191;28;20059;-57
2021/11/05 08:52:34;;;;;;;;;;;25.10;38.50;;;;;;5011899;28;20084;-57
2021/11/05 08:55:05;;;;;;;2.78;1.38;;;25.00;38.30;;;;;;5014639;28;19928;-57
2021/11/05 08:57:34;;;;;;;2.88;0.85;;;25.00;38.30;;;;;;5014191;28;20103;-58
2021/11/05 09:00:08;;;;;;;0.90;0.80;;;25.00;38.70;;;;;;5005851;28;20052;-58
2021/11/05 09:02:35;;;;;;;1.25;0.80;;;25.00;38.00;;;;;;5017224;28;20671;-58
2021/11/05 09:05:08;;;;;;;1.10;1.00;;;25.00;37.90;;;;;;5018852;28;20052;-58
2021/11/05 09:07:35;;;;;;;0.95;0.95;;;25.00;37.80;;;;;;5022658;28;20128;-57
2021/11/05 09:10:05;;;;;;;12.25;1.25;;;25.00;37.70;;;;;;5002971;28;20148;-58
2021/11/05 09:12:36;;;;;;;2.40;1.00;;;25.10;37.80;;;;;;5015659;28;20052;-58
2021/11/05 09:15:05;;;;;;;3.15;0.88;;;25.10;37.60;;;;;;5012161;28;20048;-58
2021/11/05 09:17:35;;;;;;;2.38;0.98;;;25.10;37.50;;;;;;5008717;28;20484;-58
2021/11/05 09:20:04;;;;;;;1.27;0.90;;;25.10;37.40;;;;;;4996567;28;20352;-58
2021/11/05 09:22:31;;;;;;;1.23;0.93;;;25.10;37.50;;;;;;5012733;28;20486;-59
2021/11/05 09:24:58;;;;;;;2.10;1.00;;;25.10;37.60;;;;;;5016271;28;20056;-57
2021/11/05 09:27:29;;;;;;;1.60;0.95;;;25.10;37.60;;;;;;5016741;28;20048;-56
2021/11/05 09:29:56;;;;;;;5.22;1.02;;;25.20;37.50;;;;;;5005423;28;20048;-58
2021/11/05 09:32:24;;;;;;;2.35;0.85;;;25.10;37.40;;;;;;5010578;28;20076;-59
2021/11/05 09:34:54;;;;;;;0.60;0.60;;;25.10;37.40;;;;;;5013993;28;20172;-58
2021/11/05 09:37:21;;;;;;;0.70;0.70;;;25.20;37.30;;;;;;5018861;28;20105;-59
2021/11/05 09:39:49;;;;;;;2.33;1.17;;;25.20;37.40;;;;;;5004967;28;20045;-59
2021/11/05 09:42:17;;;;;;;2.72;0.90;;;25.20;37.50;;;;;;5013564;28;20143;-59
2021/11/05 09:44:44;;;;;;;3.70;0.95;;;25.30;37.70;;;;;;5015357;28;20042;-58
2021/11/05 09:47:14;;;;;;;0.70;0.70;;;25.30;37.80;;;;;;5019579;28;20072;-58
2021/11/05 09:49:42;;;;;;;0.93;0.88;;;25.30;37.60;;;;;;5006523;28;20049;-59
2021/11/05 09:52:09;;;;;;;1.55;0.70;;;25.30;37.50;;;;;;5017827;28;20144;-58
2021/11/05 09:54:40;;;;;;;1.90;0.80;;;25.40;37.80;;;;;;5015164;28;20483;-58
2021/11/05 09:57:07;;;;;;;3.95;0.82;;;25.40;37.70;;;;;;5013386;28;20140;-59
2021/11/05 09:59:34;;;;;;;1.83;0.70;;;25.40;37.60;;;;;;5005411;28;20142;-59
2021/11/05 10:02:02;;;;;;;0.90;0.70;;;25.40;37.70;;;;;;5010402;28;20559;-59
2021/11/05 10:04:30;;;;;;;1.10;0.93;;;25.40;37.60;;;;;;5012534;28;20072;-59
2021/11/05 10:07:10;;;;;;;1.27;0.60;;;25.50;37.50;;;;;;5015069;28;20099;-60
2021/11/05 10:09:53;;;;;;;1.02;0.70;;;25.50;37.40;;;;;;5008154;28;20048;-59
2021/11/05 10:12:24;;;;;;;2.33;0.63;;;25.60;37.50;;;;;;5014079;28;20046;-58
2021/11/05 10:14:59;;;;;;;2.20;0.57;;;25.60;37.30;;;;;;5014984;28;20092;-59
2021/11/05 10:17:27;;;;;;;1.23;0.80;;;25.70;37.30;;;;;;5015293;28;20048;-57
2021/11/05 10:20:08;;;;;;;2.53;0.65;;;25.70;37.40;;;;;;5006669;28;20053;-58
2021/11/05 10:22:48;;;;;;;0.70;0.70;;;25.70;37.40;;;;;;5017755;28;20056;-57
2021/11/05 10:25:48;;;;;;;0.75;0.60;;;25.70;37.30;;;;;;5018311;28;20064;-57
2021/11/05 10:28:27;;;;;;;1.60;0.75;;;25.70;37.40;;;;;;5033008;28;20184;-57
2021/11/05 10:31:02;;;;;;;6.18;1.02;;;25.70;37.30;;;;;;5007128;28;20057;-58
2021/11/05 10:33:38;;;;;;;3.05;0.70;;;25.70;37.30;;;;;;5019592;28;20081;-59
2021/11/05 10:36:09;;;;;;;1.10;0.63;;;25.70;37.10;;;;;;5013332;28;20080;-58
2021/11/05 10:38:40;;;;;;;1.77;0.60;;;25.70;37.20;;;;;;5012289;28;20414;-58
2021/11/05 10:41:11;;;;;;;2.45;0.60;;;25.70;37.30;;;;;;5006369;28;20200;-58
2021/11/05 10:43:42;;;;;;;0.75;0.47;;;25.70;37.30;;;;;;5017869;28;20080;-58
2021/11/05 10:46:27;;;;;;;0.60;0.50;;;25.70;37.20;;;;;;5020821;28;20688;-55
2021/11/05 10:48:59;;;;;;;1.55;0.60;;;25.70;37.20;;;;;;5010597;28;20045;-57
2021/11/05 10:51:28;;;;;;;1.42;0.70;;;25.70;37.00;;;;;;5014336;28;20080;-57
2021/11/05 10:53:57;;;;;;;2.55;0.55;;;25.70;36.80;;;;;;5019749;28;20490;-58
2021/11/05 10:56:29;;;;;;;0.52;0.40;;;25.70;36.70;;;;;;5018170;28;20110;-58
2021/11/05 10:59:04;;;;;;;3.50;0.50;;;25.70;36.60;;;;;;4993012;28;20144;-58
2021/11/05 11:01:35;;;;;;;2.03;1.02;;;25.70;36.50;;;;;;5013221;28;20081;-58
2021/11/05 11:04:08;;;;;;;1.75;0.50;;;25.80;36.50;;;;;;5019930;28;20053;-58
2021/11/05 11:06:45;;;;;;;0.65;0.60;;;25.80;36.40;;;;;;5018690;28;20081;-58
2021/11/05 11:09:21;;;;;;;2.25;0.60;;;25.80;36.30;;;;;;5006887;28;20045;-57
2021/11/05 11:11:52;;;;;;;0.95;0.40;;;25.80;36.10;;;;;;5009217;28;20053;-58
2021/11/05 11:14:29;;;;;;;0.45;0.45;;;25.90;36.20;;;;;;5006320;28;20053;-58
2021/11/05 11:17:00;;;;;;;0.52;0.40;;;25.90;36.10;;;;;;5014019;28;20139;-58
2021/11/05 11:19:30;;;;;;;0.60;0.45;;;25.90;36.00;;;;;;5001781;28;20582;-58
2021/11/05 11:22:04;;;;;;;0.65;0.57;;;26.00;36.00;;;;;;5014321;28;20076;-58
2021/11/05 11:24:34;;;;;;;1.13;0.47;;;26.00;35.90;;;;;;5007035;28;20131;-58
2021/11/05 11:27:03;;;;;;;2.17;0.57;;;26.00;35.80;;;;;;5008320;28;20126;-58
2021/11/05 11:29:51;;;;;;;0.60;0.60;;;26.00;35.80;;;;;;4997884;28;20053;-58
2021/11/05 11:32:19;;;;;;;1.48;0.40;;;26.00;35.60;;;;;;5007569;28;20087;-58
2021/11/05 11:34:47;;;;;;;4.38;0.68;;;26.00;35.50;;;;;;5010285;28;20045;-58
2021/11/05 11:37:14;;;;;;;0.45;0.40;;;26.00;35.40;;;;;;5018948;28;20060;-58
2021/11/05 11:39:41;;;;;;;1.80;0.40;;;26.00;35.30;;;;;;5011953;28;20130;-58
2021/11/05 11:42:10;;;;;;;0.32;0.32;;;26.00;35.20;;;;;;5019210;28;20040;-58
2021/11/05 11:44:37;;;;;;;2.75;0.50;;;26.10;35.20;;;;;;5015669;28;20070;-58
2021/11/05 11:47:13;;;;;;;2.38;0.38;;;26.10;35.10;;;;;;5018447;28;20048;-59
2021/11/05 11:49:45;;;;;;;2.20;0.40;;;26.10;35.10;;;;;;5001253;28;20165;-59
2021/11/05 11:52:33;;;;;;;0.32;0.30;;;26.10;35.10;;;;;;5010043;28;20399;-60
2021/11/05 11:55:17;;;;;;;0.95;0.57;;;26.10;35.10;;;;;;5016699;28;20048;-62
2021/11/05 11:57:45;;;;;;;0.93;0.35;;;26.10;35.10;;;;;;5009190;28;20144;-59
2021/11/05 12:00:22;;;;;;;0.68;0.40;;;26.10;35.10;;;;;;4993415;28;20053;-59
2021/11/05 12:03:06;;;;;;;0.30;0.30;;;26.00;35.30;;;;;;5011129;28;20600;-59
2021/11/05 12:05:43;;;;;;;2.80;0.43;;;26.10;35.60;;;;;;5006962;28;20080;-59
2021/11/05 12:08:22;;;;;;;1.65;0.40;;;26.10;35.60;;;;;;5006926;28;20549;-59
2021/11/05 12:11:15;;;;;;;1.17;0.35;;;26.10;35.50;;;;;;5004539;28;20081;-58
2021/11/05 12:13:51;;;;;;;1.95;0.40;;;26.10;35.70;;;;;;5011439;28;20098;-58
2021/11/05 12:16:25;;;;;;;1.95;0.60;;;26.10;35.60;;;;;;5010184;28;20067;-58
2021/11/05 12:19:12;;;;;;;2.22;0.25;;;26.10;35.50;;;;;;4998972;28;20107;-59
2021/11/05 12:22:03;;;;;;;0.80;0.30;;;26.10;35.40;;;;;;5004057;28;20131;-58
2021/11/05 12:24:30;;;;;;;0.98;0.40;;;26.10;35.50;;;;;;5014849;28;20149;-59
2021/11/05 12:27:15;;;;;;;1.95;0.50;;;26.10;35.60;;;;;;5010123;28;20045;-59
2021/11/05 12:29:49;;;;;;;0.50;0.30;;;26.10;35.40;;;;;;5003275;28;20479;-59
2021/11/05 12:32:28;;;;;;;2.15;0.30;;;26.20;35.40;;;;;;5008136;28;20048;-59
2021/11/05 12:35:17;;;;;;;2.78;0.47;;;26.20;35.40;;;;;;5007098;28;20057;-54
2021/11/05 12:37:58;;;;;;;3.92;0.75;;;26.20;34.20;;;;;;5008355;28;20375;-56
2021/11/05 12:40:41;;;;;;;0.88;0.50;;;26.10;34.20;;;;;;5004253;28;20049;-55
2021/11/05 12:43:33;;;;;;;3.40;0.63;;;26.10;34.20;;;;;;5012141;28;20068;-55
2021/11/05 12:46:16;;;;;;;2.88;0.85;;;26.10;34.40;;;;;;5009621;28;20045;-52
2021/11/05 12:48:48;;;;;;;2.92;0.80;;;26.00;33.90;;;;;;5000690;28;20053;-57
2021/11/05 12:51:26;;;;;;;0.90;0.43;;;26.00;33.40;;;;;;5008444;28;20469;-57
2021/11/05 12:54:00;;;;;;;1.58;0.40;;;26.00;33.90;;;;;;5009624;28;20394;-56
2021/11/05 12:56:29;;;;;;;2.67;0.30;;;26.00;34.20;;;;;;5008145;28;21899;-55
2021/11/05 12:58:57;;;;;;;1.25;0.45;;;26.00;34.20;;;;;;5002780;28;20144;-58